sensor_id;sensor_type;location;lat;lon;timestamp;pressure;altitude;pressure_sealevel;temperature;humidity
46682;BME280;34101;53.430;-2.224;2022-10-28T00:01:01;156416.46;;;15.85;100.00
46682;BME280;34101;53.430;-2.224;2022-10-28T00:03:29;156415.49;;;15.84;100.00
46682;BME280;34101;53.430;-2.224;2022-10-28T00:06:01;156411.68;;;15.83;100.00
46682;BME280;34101;53.430;-2.224;2022-10-28T00:08:28;156406.73;;;15.81;100.00
46682;BME280;34101;53.430;-2.224;2022-10-28T00:11:02;156410.54;;;15.82;100.00
46682;BME280;34101;53.430;-2.224;2022-10-28T00:13:30;156420.19;;;15.86;100.00
46682;BME280;34101;53.430;-2.224;2022-10-28T00:16:03;156425.30;;;15.88;100.00
46682;BME280;34101;53.430;-2.224;2022-10-28T00:18:31;156439.17;;;15.94;100.00
46682;BME280;34101;53.430;-2.224;2022-10-28T00:21:00;156455.47;;;16.00;100.00
46682;BME280;34101;53.430;-2.224;2022-10-28T00:23:29;156470.40;;;16.06;100.00
46682;BME280;34101;53.430;-2.224;2022-10-28T00:26:04;156476.15;;;16.08;100.00
46682;BME280;34101;53.430;-2.224;2022-10-28T00:28:31;156478.83;;;16.10;100.00
46682;BME280;34101;53.430;-2.224;2022-10-28T00:31:03;156489.21;;;16.14;100.00
46682;BME280;34101;53.430;-2.224;2022-10-28T00:33:32;156501.54;;;16.19;100.00
46682;BME280;34101;53.430;-2.224;2022-10-28T00:36:08;156505.60;;;16.20;100.00
46682;BME280;34101;53.430;-2.224;2022-10-28T00:38:35;156508.52;;;16.21;100.00
46682;BME280;34101;53.430;-2.224;2022-10-28T00:41:03;156503.89;;;16.20;100.00
46682;BME280;34101;53.430;-2.224;2022-10-28T00:43:35;156498.62;;;16.18;100.00
46682;BME280;34101;53.430;-2.224;2022-10-28T00:46:10;156487.75;;;16.13;100.00
46682;BME280;34101;53.430;-2.224;2022-10-28T00:48:42;156478.02;;;16.09;100.00
46682;BME280;34101;53.430;-2.224;2022-10-28T00:51:12;156483.86;;;16.12;100.00
46682;BME280;34101;53.430;-2.224;2022-10-28T00:53:42;156472.50;;;16.07;100.00
46682;BME280;34101;53.430;-2.224;2022-10-28T00:56:10;156480.45;;;16.10;100.00
46682;BME280;34101;53.430;-2.224;2022-10-28T00:58:38;156469.50;;;16.06;100.00
46682;BME280;34101;53.430;-2.224;2022-10-28T01:01:07;156480.13;;;16.10;100.00
46682;BME280;34101;53.430;-2.224;2022-10-28T01:03:35;156481.75;;;16.11;100.00
46682;BME280;34101;53.430;-2.224;2022-10-28T01:06:04;156489.46;;;16.14;100.00
46682;BME280;34101;53.430;-2.224;2022-10-28T01:08:31;156496.68;;;16.17;100.00
46682;BME280;34101;53.430;-2.224;2022-10-28T01:11:12;156490.59;;;16.14;100.00
46682;BME280;34101;53.430;-2.224;2022-10-28T01:13:53;156488.32;;;16.13;100.00
46682;BME280;34101;53.430;-2.224;2022-10-28T01:16:32;156489.94;;;16.14;100.00
46682;BME280;34101;53.430;-2.224;2022-10-28T01:19:40;156492.29;;;16.15;100.00
46682;BME280;34101;53.430;-2.224;2022-10-28T01:22:19;156491.56;;;16.15;100.00
46682;BME280;34101;53.430;-2.224;2022-10-28T01:25:15;156498.38;;;16.17;100.00
46682;BME280;34101;53.430;-2.224;2022-10-28T01:28:01;156503.73;;;16.20;100.00
46682;BME280;34101;53.430;-2.224;2022-10-28T01:30:41;156506.41;;;16.21;100.00
46682;BME280;34101;53.430;-2.224;2022-10-28T01:33:17;156525.07;;;16.28;100.00
46682;BME280;34101;53.430;-2.224;2022-10-28T01:35:54;156526.77;;;16.29;100.00
46682;BME280;34101;53.430;-2.224;2022-10-28T01:38:33;156529.20;;;16.30;100.00
46682;BME280;34101;53.430;-2.224;2022-10-28T01:41:08;156543.07;;;16.35;100.00
46682;BME280;34101;53.430;-2.224;2022-10-28T01:43:45;156541.70;;;16.35;100.00
46682;BME280;34101;53.430;-2.224;2022-10-28T01:46:17;156549.48;;;16.38;100.00
46682;BME280;34101;53.430;-2.224;2022-10-28T01:48:51;156554.92;;;16.40;100.00
46682;BME280;34101;53.430;-2.224;2022-10-28T01:51:23;156566.92;;;16.45;100.00
46682;BME280;34101;53.430;-2.224;2022-10-28T01:53:55;156580.15;;;16.50;100.00
46682;BME280;34101;53.430;-2.224;2022-10-28T01:56:32;156582.99;;;16.51;100.00
46682;BME280;34101;53.430;-2.224;2022-10-28T01:59:01;156585.67;;;16.52;100.00
46682;BME280;34101;53.430;-2.224;2022-10-28T02:01:30;156587.53;;;16.53;100.00
46682;BME280;34101;53.430;-2.224;2022-10-28T02:03:58;156581.20;;;16.51;100.00
46682;BME280;34101;53.430;-2.224;2022-10-28T02:06:28;156577.88;;;16.49;100.00
46682;BME280;34101;53.430;-2.224;2022-10-28T02:09:13;156575.28;;;16.48;100.00
46682;BME280;34101;53.430;-2.224;2022-10-28T02:11:55;156573.66;;;16.48;100.00
46682;BME280;34101;53.430;-2.224;2022-10-28T02:14:41;156578.36;;;16.50;100.00
46682;BME280;34101;53.430;-2.224;2022-10-28T02:17:20;156570.49;;;16.46;100.00
46682;BME280;34101;53.430;-2.224;2022-10-28T02:19:56;156559.54;;;16.42;100.00
46682;BME280;34101;53.430;-2.224;2022-10-28T02:22:31;156563.03;;;16.43;100.00
46682;BME280;34101;53.430;-2.224;2022-10-28T02:25:05;156557.76;;;16.41;100.00
46682;BME280;34101;53.430;-2.224;2022-10-28T02:27:40;156554.43;;;16.40;100.00
46682;BME280;34101;53.430;-2.224;2022-10-28T02:30:17;156557.84;;;16.41;100.00
46682;BME280;34101;53.430;-2.224;2022-10-28T02:32:48;156546.56;;;16.37;100.00
46682;BME280;34101;53.430;-2.224;2022-10-28T02:35:19;156549.73;;;16.38;100.00
46682;BME280;34101;53.430;-2.224;2022-10-28T02:37:49;156551.67;;;16.39;100.00
46682;BME280;34101;53.430;-2.224;2022-10-28T02:40:23;156550.54;;;16.38;100.00
46682;BME280;34101;53.430;-2.224;2022-10-28T02:42:56;156561.33;;;16.43;100.00
46682;BME280;34101;53.430;-2.224;2022-10-28T02:45:27;156556.14;;;16.41;100.00
46682;BME280;34101;53.430;-2.224;2022-10-28T02:48:01;156542.34;;;16.35;100.00
46682;BME280;34101;53.430;-2.224;2022-10-28T02:50:32;156563.11;;;16.43;100.00
46682;BME280;34101;53.430;-2.224;2022-10-28T02:53:14;156566.28;;;16.45;100.00
46682;BME280;34101;53.430;-2.224;2022-10-28T02:55:43;156568.14;;;16.45;100.00
46682;BME280;34101;53.430;-2.224;2022-10-28T02:58:13;156573.50;;;16.48;100.00
46682;BME280;34101;53.430;-2.224;2022-10-28T03:00:43;156563.52;;;16.44;100.00
46682;BME280;34101;53.430;-2.224;2022-10-28T03:03:16;156564.49;;;16.44;100.00
46682;BME280;34101;53.430;-2.224;2022-10-28T03:05:43;156572.68;;;16.47;100.00
46682;BME280;34101;53.430;-2.224;2022-10-28T03:08:10;156592.16;;;16.55;100.00
46682;BME280;34101;53.430;-2.224;2022-10-28T03:10:38;156576.74;;;16.49;100.00
46682;BME280;34101;53.430;-2.224;2022-10-28T03:13:05;156596.86;;;16.57;100.00
46682;BME280;34101;53.430;-2.224;2022-10-28T03:15:32;156602.38;;;16.59;100.00
46682;BME280;34101;53.430;-2.224;2022-10-28T03:18:05;156608.30;;;16.62;100.00
46682;BME280;34101;53.430;-2.224;2022-10-28T03:20:32;156581.61;;;16.51;100.00
46682;BME280;34101;53.430;-2.224;2022-10-28T03:23:00;156598.24;;;16.57;100.00
46682;BME280;34101;53.430;-2.224;2022-10-28T03:25:27;156602.13;;;16.59;100.00
46682;BME280;34101;53.430;-2.224;2022-10-28T03:27:54;156604.24;;;16.60;100.00
46682;BME280;34101;53.430;-2.224;2022-10-28T03:30:22;156612.28;;;16.63;100.00
46682;BME280;34101;53.430;-2.224;2022-10-28T03:32:49;156619.90;;;16.66;100.00
46682;BME280;34101;53.430;-2.224;2022-10-28T03:35:16;156622.58;;;16.67;100.00
46682;BME280;34101;53.430;-2.224;2022-10-28T03:37:44;156614.39;;;16.64;100.00
46682;BME280;34101;53.430;-2.224;2022-10-28T03:40:12;156613.41;;;16.64;100.00
46682;BME280;34101;53.430;-2.224;2022-10-28T03:42:40;156626.88;;;16.69;100.00
46682;BME280;34101;53.430;-2.224;2022-10-28T03:45:08;156631.34;;;16.71;100.00
46682;BME280;34101;53.430;-2.224;2022-10-28T03:47:36;156632.89;;;16.71;100.00
46682;BME280;34101;53.430;-2.224;2022-10-28T03:50:03;156638.73;;;16.74;100.00
46682;BME280;34101;53.430;-2.224;2022-10-28T03:52:32;156641.89;;;16.75;100.00
46682;BME280;34101;53.430;-2.224;2022-10-28T03:54:59;156653.09;;;16.80;100.00
46682;BME280;34101;53.430;-2.224;2022-10-28T03:57:29;156661.20;;;16.83;100.00
46682;BME280;34101;53.430;-2.224;2022-10-28T03:59:57;156668.91;;;16.86;100.00
46682;BME280;34101;53.430;-2.224;2022-10-28T04:02:24;156674.43;;;16.88;100.00
46682;BME280;34101;53.430;-2.224;2022-10-28T04:04:52;156670.62;;;16.87;100.00
46682;BME280;34101;53.430;-2.224;2022-10-28T04:07:20;156677.43;;;16.89;100.00
46682;BME280;34101;53.430;-2.224;2022-10-28T04:09:47;156672.73;;;16.87;100.00
46682;BME280;34101;53.430;-2.224;2022-10-28T04:12:16;156684.17;;;16.92;100.00
46682;BME280;34101;53.430;-2.224;2022-10-28T04:14:44;156687.41;;;16.93;100.00
46682;BME280;34101;53.430;-2.224;2022-10-28T04:17:11;156690.50;;;16.95;100.00
46682;BME280;34101;53.430;-2.224;2022-10-28T04:19:39;156705.59;;;17.01;100.00
46682;BME280;34101;53.430;-2.224;2022-10-28T04:22:06;156726.53;;;17.09;100.00
46682;BME280;34101;53.430;-2.224;2022-10-28T04:24:33;156736.84;;;17.13;100.00
46682;BME280;34101;53.430;-2.224;2022-10-28T04:27:05;156745.52;;;17.17;100.00
46682;BME280;34101;53.430;-2.224;2022-10-28T04:29:39;156751.36;;;17.19;100.00
46682;BME280;34101;53.430;-2.224;2022-10-28T04:32:07;156773.93;;;17.28;100.00
46682;BME280;34101;53.430;-2.224;2022-10-28T04:34:35;156790.48;;;17.35;100.00
46682;BME280;34101;53.430;-2.224;2022-10-28T04:37:03;156811.91;;;17.43;100.00
46682;BME280;34101;53.430;-2.224;2022-10-28T04:39:30;156819.38;;;17.46;100.00
46682;BME280;34101;53.430;-2.224;2022-10-28T04:41:57;156822.71;;;17.48;100.00
46682;BME280;34101;53.430;-2.224;2022-10-28T04:44:25;156839.27;;;17.54;100.00
46682;BME280;34101;53.430;-2.224;2022-10-28T04:46:54;156849.90;;;17.58;100.00
46682;BME280;34101;53.430;-2.224;2022-10-28T04:49:22;156852.99;;;17.60;100.00
46682;BME280;34101;53.430;-2.224;2022-10-28T04:51:51;156858.51;;;17.62;100.00
46682;BME280;34101;53.430;-2.224;2022-10-28T04:54:18;156850.71;;;17.59;100.00
46682;BME280;34101;53.430;-2.224;2022-10-28T04:56:47;156856.07;;;17.61;100.00
46682;BME280;34101;53.430;-2.224;2022-10-28T04:59:15;156859.48;;;17.62;100.00
46682;BME280;34101;53.430;-2.224;2022-10-28T05:01:42;156871.66;;;17.67;100.00
46682;BME280;34101;53.430;-2.224;2022-10-28T05:04:09;156872.47;;;17.68;100.00
46682;BME280;34101;53.430;-2.224;2022-10-28T05:06:37;156880.99;;;17.71;100.00
46682;BME280;34101;53.430;-2.224;2022-10-28T05:09:04;156874.17;;;17.68;100.00
46682;BME280;34101;53.430;-2.224;2022-10-28T05:11:31;156887.41;;;17.74;100.00
46682;BME280;34101;53.430;-2.224;2022-10-28T05:13:59;156890.98;;;17.75;100.00
46682;BME280;34101;53.430;-2.224;2022-10-28T05:16:28;156898.04;;;17.78;100.00
46682;BME280;34101;53.430;-2.224;2022-10-28T05:18:56;156912.41;;;17.84;100.00
46682;BME280;34101;53.430;-2.224;2022-10-28T05:21:24;156917.20;;;17.85;100.00
46682;BME280;34101;53.430;-2.224;2022-10-28T05:23:52;156913.14;;;17.84;100.00
46682;BME280;34101;53.430;-2.224;2022-10-28T05:26:19;156889.35;;;17.74;100.00
46682;BME280;34101;53.430;-2.224;2022-10-28T05:28:48;156866.46;;;17.65;100.00
46682;BME280;34101;53.430;-2.224;2022-10-28T05:31:16;156832.37;;;17.51;100.00
46682;BME280;34101;53.430;-2.224;2022-10-28T05:33:44;156828.71;;;17.50;100.00
46682;BME280;34101;53.430;-2.224;2022-10-28T05:36:12;156826.77;;;17.49;100.00
46682;BME280;34101;53.430;-2.224;2022-10-28T05:38:39;156851.28;;;17.59;100.00
46682;BME280;34101;53.430;-2.224;2022-10-28T05:41:07;156871.58;;;17.67;100.00
46682;BME280;34101;53.430;-2.224;2022-10-28T05:43:34;156874.58;;;17.68;100.00
46682;BME280;34101;53.430;-2.224;2022-10-28T05:46:01;156885.95;;;17.73;100.00
46682;BME280;34101;53.430;-2.224;2022-10-28T05:48:30;156903.16;;;17.80;100.00
46682;BME280;34101;53.430;-2.224;2022-10-28T05:50:58;156916.55;;;17.85;100.00
46682;BME280;34101;53.430;-2.224;2022-10-28T05:53:25;156921.91;;;17.87;100.00
46682;BME280;34101;53.430;-2.224;2022-10-28T05:55:53;156949.03;;;17.98;100.00
46682;BME280;34101;53.430;-2.224;2022-10-28T05:58:20;156931.57;;;17.91;100.00
46682;BME280;34101;53.430;-2.224;2022-10-28T06:00:48;156950.57;;;17.99;100.00
46682;BME280;34101;53.430;-2.224;2022-10-28T06:03:15;156948.54;;;17.98;100.00
46682;BME280;34101;53.430;-2.224;2022-10-28T06:05:44;156895.04;;;17.77;100.00
46682;BME280;34101;53.430;-2.224;2022-10-28T06:08:12;156825.55;;;17.49;100.00
46682;BME280;34101;53.430;-2.224;2022-10-28T06:10:41;156731.80;;;17.11;100.00
46682;BME280;34101;53.430;-2.224;2022-10-28T06:13:15;156649.68;;;16.78;100.00
46682;BME280;34101;53.430;-2.224;2022-10-28T06:15:42;156617.47;;;16.65;100.00
46682;BME280;34101;53.430;-2.224;2022-10-28T06:18:10;156604.24;;;16.60;100.00
46682;BME280;34101;53.430;-2.224;2022-10-28T06:20:37;156592.48;;;16.55;100.00
46682;BME280;34101;53.430;-2.224;2022-10-28T06:23:09;156566.03;;;16.45;100.00
46682;BME280;34101;53.430;-2.224;2022-10-28T06:25:37;156547.78;;;16.37;100.00
46682;BME280;34101;53.430;-2.224;2022-10-28T06:28:09;156523.12;;;16.27;100.00
46682;BME280;34101;53.430;-2.224;2022-10-28T06:30:37;156512.74;;;16.23;100.00
46682;BME280;34101;53.430;-2.224;2022-10-28T06:33:05;156518.82;;;16.26;100.00
46682;BME280;34101;53.430;-2.224;2022-10-28T06:35:32;156507.95;;;16.21;100.00
46682;BME280;34101;53.430;-2.224;2022-10-28T06:37:59;156505.11;;;16.20;100.00
46682;BME280;34101;53.430;-2.224;2022-10-28T06:40:27;156504.30;;;16.20;100.00
46682;BME280;34101;53.430;-2.224;2022-10-28T06:42:58;156512.65;;;16.23;100.00
46682;BME280;34101;53.430;-2.224;2022-10-28T06:45:27;156531.39;;;16.31;100.00
46682;BME280;34101;53.430;-2.224;2022-10-28T06:47:55;156544.37;;;16.36;100.00
46682;BME280;34101;53.430;-2.224;2022-10-28T06:50:23;156567.90;;;16.45;100.00
46682;BME280;34101;53.430;-2.224;2022-10-28T06:52:50;156583.64;;;16.52;100.00
46682;BME280;34101;53.430;-2.224;2022-10-28T06:55:17;156593.29;;;16.56;100.00
46682;BME280;34101;53.430;-2.224;2022-10-28T06:57:44;156600.84;;;16.59;100.00
46682;BME280;34101;53.430;-2.224;2022-10-28T07:00:13;156616.01;;;16.65;100.00
46682;BME280;34101;53.430;-2.224;2022-10-28T07:02:40;156632.64;;;16.71;100.00
46682;BME280;34101;53.430;-2.224;2022-10-28T07:05:08;156644.24;;;16.76;100.00
46682;BME280;34101;53.430;-2.224;2022-10-28T07:07:35;156665.26;;;16.84;100.00
46682;BME280;34101;53.430;-2.224;2022-10-28T07:10:03;156686.93;;;16.93;100.00
46682;BME280;34101;53.430;-2.224;2022-10-28T07:12:31;156709.57;;;17.02;100.00
46682;BME280;34101;53.430;-2.224;2022-10-28T07:14:58;156731.48;;;17.11;100.00
46682;BME280;34101;53.430;-2.224;2022-10-28T07:17:26;156742.35;;;17.15;100.00
46682;BME280;34101;53.430;-2.224;2022-10-28T07:19:53;156743.49;;;17.16;100.00
46682;BME280;34101;53.430;-2.224;2022-10-28T07:22:20;156701.78;;;16.99;100.00
46682;BME280;34101;53.430;-2.224;2022-10-28T07:24:48;156664.37;;;16.84;100.00
46682;BME280;34101;53.430;-2.224;2022-10-28T07:27:15;156633.37;;;16.72;100.00
46682;BME280;34101;53.430;-2.224;2022-10-28T07:29:42;156602.70;;;16.59;100.00
46682;BME280;34101;53.430;-2.224;2022-10-28T07:32:11;156577.39;;;16.49;100.00
46682;BME280;34101;53.430;-2.224;2022-10-28T07:34:39;156542.83;;;16.35;100.00
46682;BME280;34101;53.430;-2.224;2022-10-28T07:37:06;156510.30;;;16.22;100.00
46682;BME280;34101;53.430;-2.224;2022-10-28T07:39:34;156493.59;;;16.15;100.00
46682;BME280;34101;53.430;-2.224;2022-10-28T07:42:01;156477.21;;;16.09;100.00
46682;BME280;34101;53.430;-2.224;2022-10-28T07:44:28;156458.31;;;16.01;100.00
46682;BME280;34101;53.430;-2.224;2022-10-28T07:46:56;156461.88;;;16.03;100.00
46682;BME280;34101;53.430;-2.224;2022-10-28T07:49:23;156460.18;;;16.02;100.00
46682;BME280;34101;53.430;-2.224;2022-10-28T07:51:51;156449.06;;;15.98;100.00
46682;BME280;34101;53.430;-2.224;2022-10-28T07:54:18;156443.79;;;15.95;100.00
46682;BME280;34101;53.430;-2.224;2022-10-28T07:56:45;156414.76;;;15.84;100.00
46682;BME280;34101;53.430;-2.224;2022-10-28T07:59:13;156445.50;;;15.96;100.00
46682;BME280;34101;53.430;-2.224;2022-10-28T08:01:40;156447.69;;;15.97;100.00
46682;BME280;34101;53.430;-2.224;2022-10-28T08:04:08;156451.58;;;15.99;100.00
46682;BME280;34101;53.430;-2.224;2022-10-28T08:06:35;156426.03;;;15.88;100.00
46682;BME280;34101;53.430;-2.224;2022-10-28T08:09:03;156446.63;;;15.97;100.00
46682;BME280;34101;53.430;-2.224;2022-10-28T08:11:30;156478.26;;;16.09;100.00
46682;BME280;34101;53.430;-2.224;2022-10-28T08:13:58;156512.74;;;16.23;100.00
46682;BME280;34101;53.430;-2.224;2022-10-28T08:16:25;156528.80;;;16.30;100.00
46682;BME280;34101;53.430;-2.224;2022-10-28T08:18:53;156524.01;;;16.28;100.00
46682;BME280;34101;53.430;-2.224;2022-10-28T08:21:20;156521.33;;;16.27;100.00
46682;BME280;34101;53.430;-2.224;2022-10-28T08:23:47;156526.20;;;16.29;100.00
46682;BME280;34101;53.430;-2.224;2022-10-28T08:26:15;156526.20;;;16.29;100.00
46682;BME280;34101;53.430;-2.224;2022-10-28T08:28:43;156512.09;;;16.23;100.00
46682;BME280;34101;53.430;-2.224;2022-10-28T08:31:11;156517.28;;;16.25;100.00
46682;BME280;34101;53.430;-2.224;2022-10-28T08:33:39;156510.14;;;16.22;100.00
46682;BME280;34101;53.430;-2.224;2022-10-28T08:36:09;156513.47;;;16.23;100.00
46682;BME280;34101;53.430;-2.224;2022-10-28T08:38:37;156497.73;;;16.17;100.00
46682;BME280;34101;53.430;-2.224;2022-10-28T08:41:14;156480.70;;;16.10;100.00
46682;BME280;34101;53.430;-2.224;2022-10-28T08:43:57;156450.04;;;15.98;100.00
46682;BME280;34101;53.430;-2.224;2022-10-28T08:46:41;156413.95;;;15.84;100.00
46682;BME280;34101;53.430;-2.224;2022-10-28T08:49:15;156376.00;;;15.68;100.00
46682;BME280;34101;53.430;-2.224;2022-10-28T08:51:48;156337.56;;;15.53;100.00
46682;BME280;34101;53.430;-2.224;2022-10-28T08:54:20;156315.18;;;15.44;100.00
46682;BME280;34101;53.430;-2.224;2022-10-28T08:56:50;156337.07;;;15.53;100.00
46682;BME280;34101;53.430;-2.224;2022-10-28T08:59:23;156332.29;;;15.51;100.00
46682;BME280;34101;53.430;-2.224;2022-10-28T09:01:57;156380.05;;;15.70;100.00
46682;BME280;34101;53.430;-2.224;2022-10-28T09:04:32;156460.58;;;16.02;100.00
46682;BME280;34101;53.430;-2.224;2022-10-28T09:07:04;156653.49;;;16.80;100.00
46682;BME280;34101;53.430;-2.224;2022-10-28T09:09:32;156746.09;;;17.17;100.00
46682;BME280;34101;53.430;-2.224;2022-10-28T09:12:09;156858.10;;;17.62;100.00
46682;BME280;34101;53.430;-2.224;2022-10-28T09:14:52;156923.13;;;17.88;100.00
46682;BME280;34101;53.430;-2.224;2022-10-28T09:17:28;156915.25;;;17.85;100.00
46682;BME280;34101;53.430;-2.224;2022-10-28T09:20:06;157050.05;;;18.39;100.00
46682;BME280;34101;53.430;-2.224;2022-10-28T09:22:47;157093.34;;;18.56;100.00
46682;BME280;34101;53.430;-2.224;2022-10-28T09:25:22;157101.62;;;18.59;100.00
46682;BME280;34101;53.430;-2.224;2022-10-28T09:28:02;157008.79;;;18.22;100.00
46682;BME280;34101;53.430;-2.224;2022-10-28T09:30:39;157053.94;;;18.40;100.00
46682;BME280;34101;53.430;-2.224;2022-10-28T09:33:23;157037.13;;;18.34;100.00
46682;BME280;34101;53.430;-2.224;2022-10-28T09:35:55;156869.71;;;17.66;100.00
46682;BME280;34101;53.430;-2.224;2022-10-28T09:38:35;156879.53;;;17.70;100.00
46682;BME280;34101;53.430;-2.224;2022-10-28T09:41:05;156999.37;;;18.18;100.00
46682;BME280;34101;53.430;-2.224;2022-10-28T09:43:39;157088.62;;;18.54;100.00
46682;BME280;34101;53.430;-2.224;2022-10-28T09:46:14;157096.58;;;18.57;100.00
46682;BME280;34101;53.430;-2.224;2022-10-28T09:48:44;157136.06;;;18.73;100.00
46682;BME280;34101;53.430;-2.224;2022-10-28T09:51:25;156969.57;;;18.06;100.00
46682;BME280;34101;53.430;-2.224;2022-10-28T09:53:57;157094.47;;;18.57;100.00
46682;BME280;34101;53.430;-2.224;2022-10-28T09:56:26;157244.27;;;19.17;100.00
46682;BME280;34101;53.430;-2.224;2022-10-28T09:58:57;157120.87;;;18.67;100.00
46682;BME280;34101;53.430;-2.224;2022-10-28T10:01:32;157072.87;;;18.48;100.00
46682;BME280;34101;53.430;-2.224;2022-10-28T10:04:01;156966.41;;;18.05;100.00
46682;BME280;34101;53.430;-2.224;2022-10-28T10:06:34;157045.99;;;18.37;100.00
46682;BME280;34101;53.430;-2.224;2022-10-28T10:09:03;156981.59;;;18.11;100.00
46682;BME280;34101;53.430;-2.224;2022-10-28T10:11:35;157061.66;;;18.43;100.00
46682;BME280;34101;53.430;-2.224;2022-10-28T10:14:08;157172.04;;;18.88;100.00
46682;BME280;34101;53.430;-2.224;2022-10-28T10:16:42;157387.53;;;19.74;100.00
46682;BME280;34101;53.430;-2.224;2022-10-28T10:19:12;157443.61;;;19.97;100.00
46682;BME280;34101;53.430;-2.224;2022-10-28T10:21:43;157372.09;;;19.68;100.00
46682;BME280;34101;53.430;-2.224;2022-10-28T10:24:29;157030.56;;;18.31;100.00
46682;BME280;34101;53.430;-2.224;2022-10-28T10:27:01;157029.26;;;18.30;100.00
46682;BME280;34101;53.430;-2.224;2022-10-28T10:29:29;157014.96;;;18.25;100.00
46682;BME280;34101;53.430;-2.224;2022-10-28T10:32:11;156888.87;;;17.74;100.00
46682;BME280;34101;53.430;-2.224;2022-10-28T10:34:43;156729.13;;;17.10;100.00
46682;BME280;34101;53.430;-2.224;2022-10-28T10:37:20;156797.22;;;17.37;100.00
46682;BME280;34101;53.430;-2.224;2022-10-28T10:40:23;156875.23;;;17.69;100.00
46682;BME280;34101;53.430;-2.224;2022-10-28T10:42:52;156996.21;;;18.17;100.00
46682;BME280;34101;53.430;-2.224;2022-10-28T10:45:23;157149.46;;;18.79;100.00
46682;BME280;34101;53.430;-2.224;2022-10-28T10:48:11;157123.71;;;18.68;100.00
46682;BME280;34101;53.430;-2.224;2022-10-28T10:50:39;156995.23;;;18.17;100.00
46682;BME280;34101;53.430;-2.224;2022-10-28T10:53:17;157012.77;;;18.24;100.00
46682;BME280;34101;53.430;-2.224;2022-10-28T10:55:49;157066.13;;;18.45;100.00
46682;BME280;34101;53.430;-2.224;2022-10-28T10:58:20;157191.95;;;18.96;100.00
46682;BME280;34101;53.430;-2.224;2022-10-28T11:00:49;157178.54;;;18.90;99.04
46682;BME280;34101;53.430;-2.224;2022-10-28T11:03:21;157084.40;;;18.53;100.00
46682;BME280;34101;53.430;-2.224;2022-10-28T11:05:52;157222.09;;;19.08;96.36
46682;BME280;34101;53.430;-2.224;2022-10-28T11:08:30;157316.26;;;19.45;92.27
46682;BME280;34101;53.430;-2.224;2022-10-28T11:11:11;157321.70;;;19.48;82.74
46682;BME280;34101;53.430;-2.224;2022-10-28T11:13:39;157273.60;;;19.28;79.13
46682;BME280;34101;53.430;-2.224;2022-10-28T11:16:17;157107.55;;;18.62;81.89
46682;BME280;34101;53.430;-2.224;2022-10-28T11:18:47;157155.07;;;18.81;81.60
46682;BME280;34101;53.430;-2.224;2022-10-28T11:21:32;156948.95;;;17.98;82.53
46682;BME280;34101;53.430;-2.224;2022-10-28T11:24:15;156828.39;;;17.50;84.43
46682;BME280;34101;53.430;-2.224;2022-10-28T11:26:54;157007.17;;;18.22;82.36
46682;BME280;34101;53.430;-2.224;2022-10-28T11:29:25;157052.89;;;18.40;80.23
46682;BME280;34101;53.430;-2.224;2022-10-28T11:32:07;157095.69;;;18.57;79.27
46682;BME280;34101;53.430;-2.224;2022-10-28T11:34:51;156985.57;;;18.13;80.35
46682;BME280;34101;53.430;-2.224;2022-10-28T11:37:36;157057.60;;;18.42;79.72
46682;BME280;34101;53.430;-2.224;2022-10-28T11:40:18;157034.70;;;18.33;78.18
46682;BME280;34101;53.430;-2.224;2022-10-28T11:42:55;157081.23;;;18.51;77.71
46682;BME280;34101;53.430;-2.224;2022-10-28T11:45:32;157260.84;;;19.23;76.21
46682;BME280;34101;53.430;-2.224;2022-10-28T11:48:16;157379.64;;;19.71;74.17
46682;BME280;34101;53.430;-2.224;2022-10-28T11:50:54;157312.36;;;19.44;71.31
46682;BME280;34101;53.430;-2.224;2022-10-28T11:53:32;157239.07;;;19.15;72.61
46682;BME280;34101;53.430;-2.224;2022-10-28T11:56:25;157159.05;;;18.82;72.77
46682;BME280;34101;53.430;-2.224;2022-10-28T11:59:02;157112.75;;;18.64;72.14
46682;BME280;34101;53.430;-2.224;2022-10-28T12:01:43;157095.37;;;18.57;73.30
46682;BME280;34101;53.430;-2.224;2022-10-28T12:04:24;157175.94;;;18.89;72.47
46682;BME280;34101;53.430;-2.224;2022-10-28T12:07:09;157106.57;;;18.61;72.34
46682;BME280;34101;53.430;-2.224;2022-10-28T12:09:52;157049.40;;;18.39;74.77
46682;BME280;34101;53.430;-2.224;2022-10-28T12:12:29;157076.04;;;18.49;73.98
46682;BME280;34101;53.430;-2.224;2022-10-28T12:15:02;157051.51;;;18.39;74.50
46682;BME280;34101;53.430;-2.224;2022-10-28T12:17:42;156942.13;;;17.95;74.28
46682;BME280;34101;53.430;-2.224;2022-10-28T12:20:19;157021.22;;;18.27;73.32
46682;BME280;34101;53.430;-2.224;2022-10-28T12:22:49;157087.65;;;18.54;72.04
46682;BME280;34101;53.430;-2.224;2022-10-28T12:25:23;157061.25;;;18.43;71.30
46682;BME280;34101;53.430;-2.224;2022-10-28T12:27:56;156958.93;;;18.02;71.50
46682;BME280;34101;53.430;-2.224;2022-10-28T12:30:28;156910.71;;;17.83;73.53
46682;BME280;34101;53.430;-2.224;2022-10-28T12:33:02;156865.73;;;17.65;72.34
46682;BME280;34101;53.430;-2.224;2022-10-28T12:35:35;156860.13;;;17.63;71.81
46682;BME280;34101;53.430;-2.224;2022-10-28T12:38:09;156896.90;;;17.77;70.91
46682;BME280;34101;53.430;-2.224;2022-10-28T12:40:45;156864.03;;;17.64;70.33
46682;BME280;34101;53.430;-2.224;2022-10-28T12:43:20;156904.78;;;17.80;71.39
46682;BME280;34101;53.430;-2.224;2022-10-28T12:45:52;156965.27;;;18.05;71.42
46682;BME280;34101;53.430;-2.224;2022-10-28T12:48:28;156948.38;;;17.98;70.40
46682;BME280;34101;53.430;-2.224;2022-10-28T12:51:03;156944.00;;;17.96;71.37
46682;BME280;34101;53.430;-2.224;2022-10-28T12:53:38;156953.90;;;18.00;70.78